Terminal Aerodrome Forecast
Issued by NWS

Home | Current Version | Previous Version | Text Only | Print | Product List | Glossary On
Versions: 1 2 3 4 5 6 7 8 9 10 11 12 13 14 15 16 17 18 19 20 21 22 23 24 25 26 27 28
000
FTUS43 KDLH 231309 AAA
TAFHIB
TAF AMD
KHIB 231309Z 2313/2412 03004KT P6SM FEW005 OVC070
     FM231500 03006KT 6SM BR VCSH BKN007 OVC060
     FM231600 03009KT P6SM VCSH BKN015
     FM231800 03011G17KT P6SM VCSH BKN025
     FM232100 03011G17KT P6SM VCSH BKN035
     FM240000 03007KT P6SM SCT015 BKN040
     FM240900 01004KT 4SM BR SCT005=

USA.gov is the U.S. government's official web portal to all federal, state and local government web resources and services.